Terminal Aerodrome Forecast
Issued by NWS Mt. Holly, NJ

Home | Current Version | Previous Version | Text Only | Print | Product List | Glossary On
Versions: 1 2 3 4 5 6 7 8 9 10 11 12 13 14 15 16 17
516
FTUS41 KPHI 051456 AAA
TAFABE
TAF AMD
KABE 051456Z 0515/0612 12005KT 2SM BR OVC005
     FM051700 25007KT P6SM SCT015 BKN025
     FM051800 28009KT P6SM BKN035
     FM060000 30006KT P6SM FEW040
     FM060600 VRB03KT P6SM SCT250=

USA.gov is the U.S. government's official web portal to all federal, state and local government web resources and services.